createdAt,value
2018-07-27T00:02:27.262Z,11.23
2018-07-27T00:04:57.387Z,11.40
2018-07-27T00:07:27.511Z,11.87
2018-07-27T00:09:57.745Z,12.77
2018-07-27T00:12:27.824Z,12.80
2018-07-27T00:15:12.853Z,13.03
2018-07-27T00:17:48.400Z,12.50
2018-07-27T00:20:23.465Z,11.30
2018-07-27T00:22:53.603Z,9.23
2018-07-27T00:25:23.705Z,8.53
2018-07-27T00:27:54.035Z,8.90
2018-07-27T00:30:44.940Z,9.97
2018-07-27T00:33:17.406Z,9.10
2018-07-27T00:35:48.248Z,10.43
2018-07-27T00:38:20.447Z,9.90
2018-07-27T00:40:51.155Z,8.60
2018-07-27T00:43:21.496Z,10.97
2018-07-27T00:45:51.493Z,9.10
2018-07-27T00:48:23.158Z,9.90
2018-07-27T00:50:53.553Z,10.80
2018-07-27T00:53:24.172Z,12.00
2018-07-27T00:55:54.191Z,11.60
2018-07-27T01:01:22.420Z,12.10
2018-07-27T01:03:52.648Z,11.60
2018-07-27T01:06:22.848Z,9.67
2018-07-27T01:08:52.878Z,10.20
2018-07-27T01:11:43.903Z,10.80
2018-07-27T01:14:14.178Z,14.10
2018-07-27T01:16:44.828Z,11.27
2018-07-27T01:19:15.164Z,10.93
2018-07-27T01:21:45.413Z,11.83
2018-07-27T01:24:15.741Z,11.50
2018-07-27T01:26:46.472Z,11.00
2018-07-27T01:35:11.996Z,13.40
2018-07-27T01:40:42.629Z,15.77
2018-07-27T01:43:12.784Z,15.10
2018-07-27T01:45:42.969Z,15.00
2018-07-27T01:48:13.057Z,16.30
2018-07-27T01:50:43.336Z,14.20
2018-07-27T01:53:31.070Z,12.90
2018-07-27T01:56:04.856Z,14.73
2018-07-27T01:58:43.460Z,14.10
2018-07-27T02:01:13.666Z,14.37
2018-07-27T02:03:43.889Z,15.23
2018-07-27T02:06:14.421Z,15.30
2018-07-27T02:08:44.773Z,13.73
2018-07-27T02:11:15.257Z,15.13
2018-07-27T02:14:05.708Z,15.60
2018-07-27T02:16:36.836Z,15.33
2018-07-27T02:19:17.068Z,17.17
2018-07-27T02:21:48.727Z,14.23
2018-07-27T02:24:18.967Z,15.33
2018-07-27T02:26:49.243Z,14.03
2018-07-27T02:29:19.254Z,15.17
2018-07-27T02:31:49.619Z,15.03
2018-07-27T02:34:19.916Z,16.00
2018-07-27T02:36:50.119Z,15.33
2018-07-27T02:39:20.401Z,15.27
2018-07-27T02:41:51.044Z,15.07
2018-07-27T02:44:21.355Z,14.33
2018-07-27T02:46:51.483Z,15.63
2018-07-27T02:49:21.754Z,16.07
2018-07-27T02:51:51.969Z,14.63
2018-07-27T02:54:22.302Z,13.50
2018-07-27T02:56:52.488Z,15.07
2018-07-27T02:59:22.608Z,14.10
2018-07-27T03:01:53.131Z,13.93
2018-07-27T03:04:23.160Z,16.43
2018-07-27T03:06:53.518Z,15.50
2018-07-27T03:09:23.706Z,16.40
2018-07-27T03:11:53.802Z,14.30
2018-07-27T03:14:23.972Z,14.43
2018-07-27T03:16:54.880Z,14.17
2018-07-27T03:19:25.095Z,14.23
2018-07-27T03:21:55.371Z,15.20
2018-07-27T03:24:25.448Z,14.40
2018-07-27T03:26:55.530Z,15.43
2018-07-27T03:29:25.466Z,16.20
2018-07-27T03:31:55.571Z,16.73
2018-07-27T03:34:25.626Z,16.20
2018-07-27T03:36:55.727Z,15.97
2018-07-27T03:39:26.023Z,16.90
2018-07-27T03:41:55.966Z,18.10
2018-07-27T03:44:26.702Z,19.43
2018-07-27T03:46:56.738Z,23.37
2018-07-27T03:49:26.752Z,20.17
2018-07-27T03:51:56.877Z,19.83
2018-07-27T03:54:26.909Z,20.70
2018-07-27T03:56:56.995Z,22.83
2018-07-27T03:59:27.035Z,21.17
2018-07-27T04:01:57.036Z,20.17
2018-07-27T04:04:27.067Z,19.47
2018-07-27T04:06:57.138Z,19.30
2018-07-27T04:09:27.106Z,18.80
2018-07-27T04:11:57.061Z,18.93
2018-07-27T04:14:27.049Z,20.40
2018-07-27T04:16:57.058Z,18.87
2018-07-27T04:19:27.165Z,15.77
2018-07-27T04:21:57.110Z,13.40
2018-07-27T04:24:27.111Z,12.90
2018-07-27T04:26:57.027Z,10.77
2018-07-27T04:29:27.142Z,12.00
2018-07-27T04:31:57.132Z,11.20
2018-07-27T04:34:27.115Z,11.23
2018-07-27T04:36:57.125Z,10.77
2018-07-27T04:39:27.084Z,10.10
2018-07-27T04:41:57.047Z,11.23
2018-07-27T04:44:27.225Z,9.27
2018-07-27T04:46:57.227Z,11.50
2018-07-27T04:49:27.267Z,13.40
2018-07-27T04:54:17.083Z,10.87
2018-07-27T04:56:47.718Z,11.67
2018-07-27T04:59:17.746Z,13.57
2018-07-27T05:01:48.043Z,12.07
2018-07-27T05:04:18.131Z,13.30
2018-07-27T05:06:48.184Z,12.17
2018-07-27T05:09:21.485Z,12.57
2018-07-27T05:11:52.128Z,11.43
2018-07-27T05:14:22.347Z,11.37
2018-07-27T05:16:52.526Z,12.43
2018-07-27T05:19:22.654Z,13.10
2018-07-27T05:21:52.834Z,13.00
2018-07-27T05:24:23.497Z,10.90
2018-07-27T05:26:53.550Z,10.00
2018-07-27T05:29:23.556Z,10.20
2018-07-27T05:31:53.756Z,9.83
2018-07-27T05:34:23.977Z,14.10
2018-07-27T05:36:54.262Z,13.37
2018-07-27T05:39:26.139Z,9.87
2018-07-27T05:41:57.141Z,11.23
2018-07-27T05:44:27.358Z,12.73
2018-07-27T05:46:57.455Z,11.73
2018-07-27T05:49:27.734Z,14.97
2018-07-27T05:51:58.286Z,13.67
2018-07-27T05:54:28.997Z,13.57
2018-07-27T05:56:59.478Z,12.60
2018-07-27T05:59:29.573Z,12.10
2018-07-27T06:02:00.202Z,11.00
2018-07-27T06:04:34.021Z,11.47
2018-07-27T06:07:09.990Z,13.40
2018-07-27T06:09:45.172Z,10.97
2018-07-27T06:12:17.027Z,13.23
2018-07-27T06:14:47.076Z,15.47
2018-07-27T06:17:21.718Z,16.20
2018-07-27T06:19:52.441Z,12.37
2018-07-27T06:25:19.487Z,11.60
2018-07-27T06:27:49.922Z,10.33
2018-07-27T06:30:22.885Z,11.50
2018-07-27T06:32:54.285Z,10.90
2018-07-27T06:35:24.461Z,9.53
2018-07-27T06:37:54.606Z,11.00
2018-07-27T06:40:25.844Z,7.87
2018-07-27T06:42:55.982Z,10.83
2018-07-27T06:45:34.128Z,8.77
2018-07-27T06:48:04.917Z,9.33
2018-07-27T06:50:37.228Z,7.87
2018-07-27T06:53:08.152Z,8.27
2018-07-27T06:55:39.377Z,9.83
2018-07-27T06:58:10.212Z,7.40
2018-07-27T07:00:42.938Z,7.73
2018-07-27T07:03:15.430Z,7.60
2018-07-27T07:05:45.657Z,7.13
2018-07-27T07:08:16.347Z,8.67
2018-07-27T07:10:46.828Z,6.87
2018-07-27T07:13:17.136Z,7.23
2018-07-27T07:15:47.749Z,7.37
2018-07-27T07:18:18.027Z,6.37
2018-07-27T07:20:48.494Z,8.43
2018-07-27T07:23:19.603Z,9.33
2018-07-27T07:25:50.466Z,6.70
2018-07-27T07:28:20.826Z,6.83
2018-07-27T07:30:51.463Z,5.17
2018-07-27T07:33:22.658Z,7.60
2018-07-27T07:35:53.098Z,9.60
2018-07-27T07:38:24.333Z,6.07
2018-07-27T07:40:54.569Z,4.70
2018-07-27T07:43:24.664Z,5.77
2018-07-27T07:45:55.176Z,6.13
2018-07-27T07:48:25.507Z,6.63
2018-07-27T07:50:55.720Z,5.57
2018-07-27T07:53:26.138Z,5.60
2018-07-27T07:55:56.138Z,6.10
2018-07-27T07:58:26.102Z,5.87
2018-07-27T08:00:58.422Z,5.43
2018-07-27T08:03:28.482Z,5.60
2018-07-27T08:05:58.464Z,5.83
2018-07-27T08:08:29.271Z,5.87
2018-07-27T08:10:59.364Z,5.97
2018-07-27T08:13:29.339Z,4.90
2018-07-27T08:15:59.252Z,5.47
2018-07-27T08:18:29.207Z,5.40
2018-07-27T08:20:59.260Z,5.63
2018-07-27T08:23:29.322Z,5.13
2018-07-27T08:26:56.248Z,4.77
2018-07-27T08:29:28.209Z,4.30
2018-07-27T08:31:58.583Z,4.20
2018-07-27T08:34:28.533Z,4.07
2018-07-27T08:36:58.784Z,4.00
2018-07-27T08:39:30.396Z,3.60
2018-07-27T08:42:00.347Z,3.87
2018-07-27T08:44:34.545Z,3.70
2018-07-27T08:47:04.705Z,3.40
2018-07-27T08:49:34.697Z,4.27
2018-07-27T08:52:04.929Z,3.77
2018-07-27T08:54:43.109Z,3.70
2018-07-27T08:57:13.073Z,3.70
2018-07-27T08:59:43.059Z,3.90
2018-07-27T09:02:13.092Z,4.93
2018-07-27T09:04:43.088Z,3.60
2018-07-27T09:07:13.088Z,4.97
2018-07-27T09:09:43.909Z,4.63
2018-07-27T09:12:13.844Z,5.53
2018-07-27T09:14:43.646Z,5.17
2018-07-27T09:17:13.658Z,3.83
2018-07-27T09:19:44.093Z,3.97
2018-07-27T09:22:14.132Z,8.07
2018-07-27T09:24:44.218Z,4.23
2018-07-27T09:27:14.000Z,3.90
2018-07-27T09:29:46.754Z,5.80
2018-07-27T09:32:17.152Z,4.10
2018-07-27T09:34:47.617Z,4.03
2018-07-27T09:37:17.689Z,3.67
2018-07-27T09:39:47.646Z,4.33
2018-07-27T09:42:17.588Z,3.70
2018-07-27T09:44:47.460Z,3.40
2018-07-27T09:47:17.424Z,3.37
2018-07-27T09:49:47.438Z,3.97
2018-07-27T09:52:17.402Z,3.60
2018-07-27T09:54:47.278Z,6.00
2018-07-27T09:57:17.239Z,3.80
2018-07-27T09:59:48.086Z,3.70
2018-07-27T10:02:18.131Z,3.83
2018-07-27T10:04:48.130Z,5.90
2018-07-27T10:07:18.060Z,4.10
2018-07-27T10:09:47.993Z,4.13
2018-07-27T10:12:18.100Z,5.83
2018-07-27T10:14:47.957Z,4.07
2018-07-27T10:17:17.857Z,4.07
2018-07-27T10:19:48.855Z,3.90
2018-07-27T10:22:18.938Z,7.50
2018-07-27T10:24:49.231Z,3.67
2018-07-27T10:27:19.179Z,5.87
2018-07-27T10:29:49.193Z,3.90
2018-07-27T10:32:19.109Z,3.87
2018-07-27T10:34:49.520Z,4.90
2018-07-27T10:37:25.264Z,5.30
2018-07-27T10:39:59.953Z,3.97
2018-07-27T10:42:29.908Z,3.97
2018-07-27T10:44:59.862Z,3.70
2018-07-27T10:47:29.887Z,4.20
2018-07-27T10:49:59.904Z,4.00
2018-07-27T10:52:30.005Z,3.70
2018-07-27T10:55:09.346Z,3.90
2018-07-27T10:57:40.421Z,3.47
2018-07-27T11:00:12.988Z,4.00
2018-07-27T11:02:43.140Z,3.30
2018-07-27T11:05:17.849Z,3.50
2018-07-27T11:07:47.754Z,4.23
2018-07-27T11:10:22.962Z,4.27
2018-07-27T11:12:52.894Z,3.07
2018-07-27T11:15:22.982Z,3.10
2018-07-27T11:17:52.981Z,3.20
2018-07-27T11:20:27.117Z,2.63
2018-07-27T11:22:57.210Z,3.47
2018-07-27T11:25:27.426Z,2.87
2018-07-27T11:27:57.452Z,5.33
2018-07-27T11:30:27.474Z,5.37
2018-07-27T11:32:57.575Z,2.80
2018-07-27T11:35:27.527Z,2.43
2018-07-27T11:37:57.529Z,3.30
2018-07-27T11:40:27.367Z,2.80
2018-07-27T11:42:57.310Z,3.00
2018-07-27T11:45:27.228Z,4.73
2018-07-27T11:47:57.672Z,2.23
2018-07-27T11:50:28.291Z,2.80
2018-07-27T11:52:58.769Z,2.73
2018-07-27T11:55:28.793Z,4.50
2018-07-27T11:57:58.718Z,2.97
2018-07-27T12:00:30.035Z,2.67
2018-07-27T12:03:00.892Z,3.37
2018-07-27T12:05:30.854Z,3.07
2018-07-27T12:08:01.521Z,5.30
2018-07-27T12:10:31.638Z,2.60
2018-07-27T12:13:01.561Z,4.03
2018-07-27T12:15:31.491Z,2.60
2018-07-27T12:18:01.517Z,3.20
2018-07-27T12:20:31.763Z,2.70
2018-07-27T12:23:01.689Z,2.63
2018-07-27T12:25:31.564Z,3.27
2018-07-27T12:28:01.578Z,2.63
2018-07-27T12:30:31.661Z,2.53
2018-07-27T12:33:01.669Z,2.40
2018-07-27T12:35:41.326Z,2.60
2018-07-27T12:38:11.302Z,2.30
2018-07-27T12:40:42.986Z,2.70
2018-07-27T12:43:12.970Z,2.97
2018-07-27T12:45:42.876Z,3.73
2018-07-27T12:48:12.778Z,2.70
2018-07-27T12:50:48.066Z,2.40
2018-07-27T12:53:19.226Z,2.00
2018-07-27T12:55:49.917Z,2.50
2018-07-27T12:58:20.006Z,2.43
2018-07-27T13:00:49.884Z,3.23
2018-07-27T13:03:19.948Z,2.40
2018-07-27T13:05:49.882Z,2.33
2018-07-27T13:08:19.811Z,2.30
2018-07-27T13:10:49.891Z,3.00
2018-07-27T13:13:19.890Z,2.63
2018-07-27T13:15:49.833Z,3.47
2018-07-27T13:18:20.076Z,2.70
2018-07-27T13:20:51.690Z,2.63
2018-07-27T13:23:22.497Z,5.10
2018-07-27T13:26:29.267Z,2.70
2018-07-27T13:28:44.447Z,3.00
2018-07-27T13:31:14.965Z,2.90
2018-07-27T13:34:02.456Z,2.90
2018-07-27T13:36:32.455Z,3.43
2018-07-27T13:39:03.989Z,2.53
2018-07-27T13:41:34.289Z,2.77
2018-07-27T13:44:04.322Z,2.80
2018-07-27T13:46:34.232Z,2.50
2018-07-27T13:49:04.359Z,2.80
2018-07-27T13:51:34.324Z,2.80
2018-07-27T13:54:04.241Z,2.83
2018-07-27T13:56:35.225Z,3.50
2018-07-27T13:59:05.877Z,4.40
2018-07-27T14:01:35.879Z,3.00
2018-07-27T14:04:05.992Z,4.30
2018-07-27T14:06:36.046Z,3.33
2018-07-27T14:09:09.960Z,2.47
2018-07-27T14:11:40.532Z,2.57
2018-07-27T14:14:10.876Z,2.60
2018-07-27T14:16:42.299Z,2.93
2018-07-27T14:19:13.927Z,2.80
2018-07-27T14:21:43.905Z,3.53
2018-07-27T14:24:13.900Z,2.70
2018-07-27T14:26:45.678Z,3.50
2018-07-27T14:29:15.731Z,2.90
2018-07-27T14:31:45.848Z,2.80
2018-07-27T14:34:15.789Z,3.00
2018-07-27T14:36:45.935Z,2.70
2018-07-27T14:39:18.689Z,2.90
2018-07-27T14:41:48.707Z,2.70
2018-07-27T14:44:19.142Z,5.53
2018-07-27T14:46:49.146Z,3.10
2018-07-27T14:49:21.071Z,3.27
2018-07-27T14:51:51.615Z,3.20
2018-07-27T14:54:21.507Z,4.13
2018-07-27T14:56:51.709Z,2.60
2018-07-27T14:59:23.458Z,3.97
2018-07-27T15:01:55.663Z,3.23
2018-07-27T15:04:26.389Z,4.17
2018-07-27T15:07:01.944Z,6.23
2018-07-27T15:09:32.004Z,3.40
2018-07-27T15:12:02.238Z,3.13
2018-07-27T15:14:32.332Z,6.40
2018-07-27T15:17:02.797Z,6.33
2018-07-27T15:19:32.766Z,3.30
2018-07-27T15:22:02.989Z,4.20
2018-07-27T15:24:41.435Z,4.77
2018-07-27T15:27:27.999Z,3.27
2018-07-27T15:29:59.462Z,7.23
2018-07-27T15:32:30.519Z,3.30
2018-07-27T15:35:02.155Z,3.53
2018-07-27T15:37:32.292Z,3.80
2018-07-27T15:40:02.265Z,4.47
2018-07-27T15:42:32.335Z,3.87
2018-07-27T15:45:02.937Z,3.93
2018-07-27T15:47:44.126Z,5.33
2018-07-27T15:50:18.623Z,5.50
2018-07-27T15:52:48.742Z,5.20
2018-07-27T15:55:18.681Z,4.27
2018-07-27T15:57:48.522Z,4.60
2018-07-27T16:00:18.489Z,21.80
2018-07-27T16:02:48.614Z,9.37
2018-07-27T16:05:19.855Z,6.57
2018-07-27T16:07:49.824Z,6.57
2018-07-27T16:10:21.462Z,6.47
2018-07-27T16:12:52.705Z,6.53
2018-07-27T16:15:22.814Z,6.67
2018-07-27T16:17:52.748Z,6.47
2018-07-27T16:20:22.689Z,8.27
2018-07-27T16:22:52.767Z,7.10
2018-07-27T16:25:22.820Z,7.07
2018-07-27T16:27:53.688Z,11.10
2018-07-27T16:30:23.696Z,17.17
2018-07-27T16:32:53.731Z,12.67
2018-07-27T16:35:23.778Z,16.53
2018-07-27T16:37:54.339Z,10.80
2018-07-27T16:40:24.562Z,11.07
2018-07-27T16:42:55.605Z,11.93
2018-07-27T16:45:32.967Z,11.90
2018-07-27T16:48:02.920Z,9.93
2018-07-27T16:50:41.647Z,9.00
2018-07-27T16:53:11.857Z,8.70
2018-07-27T16:55:43.011Z,6.60
2018-07-27T16:58:14.428Z,6.97
2018-07-27T17:00:45.244Z,7.13
2018-07-27T17:03:16.253Z,7.80
2018-07-27T17:05:46.452Z,8.63
2018-07-27T17:08:18.345Z,7.50
2018-07-27T17:10:57.933Z,7.70
2018-07-27T17:13:28.444Z,6.17
2018-07-27T17:16:06.437Z,6.20
2018-07-27T17:18:36.454Z,6.00
2018-07-27T17:21:12.032Z,4.83
2018-07-27T17:23:43.121Z,4.77
2018-07-27T17:26:16.819Z,8.10
2018-07-27T17:28:53.398Z,4.73
2018-07-27T17:31:24.172Z,4.30
2018-07-27T17:33:54.409Z,5.90
2018-07-27T17:36:25.095Z,7.40
2018-07-27T17:38:55.928Z,7.60
2018-07-27T17:41:27.254Z,7.83
2018-07-27T17:43:59.924Z,9.23
2018-07-27T17:46:30.897Z,8.83
2018-07-27T17:49:01.796Z,10.80
2018-07-27T17:51:33.167Z,9.60
2018-07-27T17:54:03.646Z,10.13
2018-07-27T17:56:34.560Z,10.30
2018-07-27T17:59:05.744Z,9.33
2018-07-27T18:01:35.932Z,12.43
2018-07-27T18:04:05.880Z,8.73
2018-07-27T18:06:47.461Z,9.40
2018-07-27T18:09:17.436Z,9.80
2018-07-27T18:11:47.450Z,11.57
2018-07-27T18:14:17.583Z,10.23
2018-07-27T18:16:47.746Z,11.07
2018-07-27T18:19:53.279Z,11.10
2018-07-27T18:22:24.323Z,11.50
2018-07-27T18:24:55.231Z,10.90
2018-07-27T18:27:25.478Z,10.30
2018-07-27T18:29:55.582Z,11.00
2018-07-27T18:32:25.812Z,12.00
2018-07-27T18:34:56.048Z,11.97
2018-07-27T18:37:26.151Z,11.27
2018-07-27T18:39:58.419Z,11.43
2018-07-27T18:42:28.615Z,11.47
2018-07-27T18:45:18.982Z,11.93
2018-07-27T18:47:49.433Z,12.37
2018-07-27T18:50:19.593Z,12.47
2018-07-27T18:52:49.632Z,12.87
2018-07-27T18:55:19.733Z,11.60
2018-07-27T18:57:49.717Z,9.60
2018-07-27T19:00:19.786Z,9.73
2018-07-27T19:02:50.025Z,9.67
2018-07-27T19:05:20.103Z,9.63
2018-07-27T19:07:50.041Z,10.60
2018-07-27T19:10:20.766Z,10.60
2018-07-27T19:12:50.764Z,11.70
2018-07-27T19:15:20.875Z,10.53
2018-07-27T19:17:51.698Z,10.00
2018-07-27T19:20:21.838Z,10.03
2018-07-27T20:05:22.773Z,11.37
2018-07-27T20:07:57.766Z,9.20
2018-07-27T20:10:35.610Z,9.13
2018-07-27T20:13:17.568Z,10.50
2018-07-27T20:15:48.888Z,10.10
2018-07-27T20:18:21.293Z,10.77
2018-07-27T20:20:52.532Z,11.03
2018-07-27T20:23:22.751Z,12.40
2018-07-27T20:25:52.888Z,12.90
2018-07-27T20:28:22.941Z,12.03
2018-07-27T20:30:54.740Z,12.37
2018-07-27T20:33:26.996Z,12.00
2018-07-27T20:35:57.191Z,15.23
2018-07-27T20:38:29.197Z,11.77
2018-07-27T20:41:00.052Z,11.17
2018-07-27T20:43:30.336Z,11.03
2018-07-27T20:46:00.672Z,11.73
2018-07-27T20:48:30.971Z,10.83
2018-07-27T20:51:01.192Z,11.40
2018-07-27T20:53:31.070Z,11.77
2018-07-27T20:56:01.154Z,12.67
2018-07-27T20:58:31.438Z,11.27
2018-07-27T21:01:03.297Z,11.33
2018-07-27T21:03:33.342Z,12.80
2018-07-27T21:06:18.542Z,11.90
2018-07-27T21:08:49.462Z,11.87
2018-07-27T21:13:20.621Z,12.10
2018-07-27T21:16:17.743Z,12.43
2018-07-27T21:18:57.383Z,13.43
2018-07-27T21:21:33.402Z,12.60
2018-07-27T21:24:03.982Z,12.53
2018-07-27T21:26:34.798Z,15.13
2018-07-27T21:29:05.570Z,15.37
2018-07-27T21:31:35.658Z,12.37
2018-07-27T21:34:21.078Z,12.73
2018-07-27T21:36:51.917Z,13.00
2018-07-27T21:39:23.897Z,12.73
2018-07-27T21:41:54.048Z,15.07
2018-07-27T21:44:24.893Z,13.60
2018-07-27T21:46:55.677Z,22.17
2018-07-27T21:49:25.985Z,17.73
2018-07-27T21:51:55.870Z,14.47
2018-07-27T21:54:30.073Z,14.07
2018-07-27T21:57:00.026Z,16.70
2018-07-27T21:59:29.895Z,14.33
2018-07-27T22:02:00.043Z,14.30
2018-07-27T22:04:30.762Z,12.53
2018-07-27T22:07:00.759Z,13.10
2018-07-27T22:09:30.778Z,12.80
2018-07-27T22:12:00.905Z,13.07
2018-07-27T22:14:30.952Z,15.50
2018-07-27T22:17:00.979Z,12.67
2018-07-27T22:19:30.908Z,12.80
2018-07-27T22:22:01.622Z,12.87
2018-07-27T22:24:31.640Z,12.77
2018-07-27T22:27:01.693Z,11.23
2018-07-27T22:29:37.727Z,11.07
2018-07-27T22:32:20.775Z,12.67
2018-07-27T22:34:50.682Z,13.57
2018-07-27T22:37:21.398Z,13.87
2018-07-27T22:44:58.986Z,13.37
2018-07-27T22:47:29.581Z,11.40
2018-07-27T22:50:00.615Z,11.37
2018-07-27T22:52:34.934Z,11.37
2018-07-27T22:55:05.231Z,11.20
2018-07-27T22:57:37.209Z,12.87
2018-07-27T23:00:10.311Z,12.67
2018-07-27T23:02:41.340Z,13.57
2018-07-27T23:05:12.390Z,13.57
2018-07-27T23:07:46.658Z,14.47
2018-07-27T23:10:22.563Z,15.30
2018-07-27T23:12:53.550Z,13.77
2018-07-27T23:15:24.525Z,15.87
2018-07-27T23:17:55.196Z,13.97
2018-07-27T23:20:26.052Z,12.40
2018-07-27T23:22:57.213Z,12.13
2018-07-27T23:25:42.754Z,17.57
2018-07-27T23:28:19.339Z,16.13
2018-07-27T23:30:51.363Z,17.57
2018-07-27T23:33:21.642Z,14.07
2018-07-27T23:35:52.100Z,14.10
2018-07-27T23:38:22.425Z,14.73
2018-07-27T23:40:53.064Z,13.60
2018-07-27T23:43:34.057Z,13.30
2018-07-27T23:46:05.300Z,12.77
2018-07-27T23:48:37.853Z,13.13
2018-07-27T23:51:09.299Z,14.00
2018-07-27T23:53:40.487Z,15.50
2018-07-27T23:56:10.896Z,17.57
2018-07-27T23:58:41.860Z,20.30
